Morgan Ray — WDF6085 — position and weather

sailwx.info

Track history (hours):
 
Tides and Currents Weather Stations Pressure Air Temp Water Temp Dewpoint Dewpoint Depression Visibility Wind Speed Wind Dir Waves Ship Positions

Morgan Ray

Owner: Daigle Towing Service LLC., Belle Chasse, LA. More information available from US FCC via Universal Licensing System and Coast Guard Vessel Documentation Center.

Last reported at 2017-Oct-17 19:01 UTC. Time now 2017-Oct-17 19:10 UTC.
Position N 30°06' W 093°20'.

Length 20 m; draft 2 m.

Type: Tug. MMSI: 367470470.

Date/timePositionNaut miles runAvg speedWind from/ knotsBaromVisibWave heightAir tempDewpointWater temp
2017-Oct-17 19:01N 30°06' W 093°20'3 5.5
2017-Oct-17 18:31N 30°09' W 093°20'2 4.9
2017-Oct-17 18:00N 30°11' W 093°19'3 5.2
2017-Oct-17 17:31N 30°12' W 093°16'2 3.2
2017-Oct-17 17:01N 30°13' W 093°15'1 2.3
2017-Oct-17 16:31N 30°14' W 093°15'0 0.0
2017-Oct-15 22:40N 30°14' W 093°15'0 2.4
2017-Oct-15 22:29N 30°14' W 093°15'1 1.8
2017-Oct-15 22:01N 30°13' W 093°15'1 1.6
2017-Oct-15 21:30N 30°13' W 093°16'2 3.2
2017-Oct-15 21:01N 30°12' W 093°17'1 1.7
2017-Oct-15 20:31N 30°11' W 093°18'0 0.0
2017-Oct-15 20:01N 30°11' W 093°18'0 0.0
2017-Oct-15 19:31N 30°11' W 093°18'0 0.0
2017-Oct-15 19:01N 30°11' W 093°18'0 0.0
2017-Oct-15 18:31N 30°11' W 093°18'0 0.0
2017-Oct-15 18:01N 30°11' W 093°18'0 0.0
2017-Oct-15 17:31N 30°11' W 093°18'0 0.0
2017-Oct-15 17:01N 30°11' W 093°18'0 0.1
2017-Oct-15 16:30N 30°11' W 093°18'1 1.4
2017-Oct-15 16:00N 30°12' W 093°17'0 0.0
2017-Oct-15 15:30N 30°12' W 093°17'0 0.0
2017-Oct-15 15:00N 30°12' W 093°17'0 0.0
2017-Oct-15 13:29N 30°12' W 093°17'0 0.0
2017-Oct-15 13:01N 30°12' W 093°17'1 2.1
2017-Oct-15 12:31N 30°12' W 093°16'1 2.4
2017-Oct-15 11:59N 30°13' W 093°15'0 0.0
2017-Oct-15 06:57N 30°13' W 093°15'0 0.0
2017-Oct-15 06:25N 30°13' W 093°15'0 0.0
2017-Oct-15 06:01N 30°13' W 093°15'0 0.0
2017-Oct-15 02:11N 30°13' W 093°15'0 0.6
2017-Oct-15 01:55N 30°13' W 093°15'1 1.8
2017-Oct-15 01:31N 30°13' W 093°16'2 4.3
2017-Oct-15 01:01N 30°12' W 093°18'0 0.9
2017-Oct-15 00:31N 30°12' W 093°17'3 6.2
2017-Oct-15 00:01N 30°14' W 093°15'1 1.3
2017-Oct-14 23:30N 30°14' W 093°15'1 1.4
2017-Oct-14 23:00N 30°14' W 093°15'1 2.4
2017-Oct-14 22:30N 30°13' W 093°16'2 4.5
2017-Oct-14 22:01N 30°12' W 093°18'0 0.5
2017-Oct-14 21:31N 30°11' W 093°18'0 0.0
2017-Oct-14 21:00N 30°11' W 093°18'0 0.0
2017-Oct-14 20:30N 30°11' W 093°18'0 0.0
2017-Oct-14 20:01N 30°11' W 093°18'0 0.0
2017-Oct-14 19:30N 30°11' W 093°18'0 0.0
2017-Oct-14 19:01N 30°11' W 093°18'0 0.0
2017-Oct-14 18:31N 30°11' W 093°18'0 0.0
2017-Oct-14 18:01N 30°11' W 093°18'0 0.1
2017-Oct-14 17:31N 30°11' W 093°18'0 0.4
2017-Oct-14 17:01N 30°12' W 093°18'0 0.0
2017-Oct-14 16:16N 30°12' W 093°18'0 0.6
2017-Oct-14 16:01N 30°11' W 093°18'0 0.2
2017-Oct-14 15:31N 30°11' W 093°18'0 0.0
2017-Oct-14 15:00N 30°11' W 093°18'0 0.0
2017-Oct-14 14:31N 30°11' W 093°18'0 0.0
2017-Oct-14 14:01N 30°11' W 093°18'0 0.0
2017-Oct-14 13:31N 30°11' W 093°18'0 0.2
2017-Oct-14 13:01N 30°11' W 093°18'0 0.1
2017-Oct-14 12:30N 30°11' W 093°18'0 0.0
2017-Oct-14 12:01N 30°11' W 093°18'0 0.0
2017-Oct-14 11:30N 30°11' W 093°18'0 0.0
2017-Oct-14 11:01N 30°11' W 093°18'0 0.0
2017-Oct-14 10:31N 30°11' W 093°18'0 0.0
2017-Oct-14 10:01N 30°11' W 093°18'0 0.0
2017-Oct-14 09:30N 30°11' W 093°18'0 0.0
2017-Oct-14 09:01N 30°11' W 093°18'0 0.0
2017-Oct-14 08:31N 30°11' W 093°18'0 0.0
2017-Oct-14 08:01N 30°11' W 093°18'0 0.0
2017-Oct-14 07:31N 30°11' W 093°18'0 0.0
2017-Oct-14 07:01N 30°11' W 093°18'0 0.0
2017-Oct-14 06:31N 30°11' W 093°18'0 0.0
2017-Oct-14 06:01N 30°11' W 093°18'0 0.0
2017-Oct-14 05:31N 30°11' W 093°18'0 0.0
2017-Oct-14 05:01N 30°11' W 093°18'0 0.0
2017-Oct-14 04:31N 30°11' W 093°18'0 0.0
2017-Oct-14 04:01N 30°11' W 093°18'0 0.0
2017-Oct-14 03:31N 30°11' W 093°18'0 0.0
2017-Oct-14 03:01N 30°11' W 093°18'0 0.0
2017-Oct-14 02:31N 30°11' W 093°18'0 0.0
2017-Oct-14 02:00N 30°11' W 093°18'0 0.0
2017-Oct-14 01:31N 30°11' W 093°18'0 0.0
2017-Oct-14 01:01N 30°11' W 093°18'0 0.0
2017-Oct-14 00:31N 30°11' W 093°18'0 0.0
2017-Oct-14 00:01N 30°11' W 093°18'0 0.0
2017-Oct-13 23:30N 30°11' W 093°18'0 0.0
2017-Oct-13 23:01N 30°11' W 093°18'0 0.0
2017-Oct-13 22:30N 30°11' W 093°18'0 0.0
2017-Oct-13 22:01N 30°11' W 093°18'0 0.0
2017-Oct-13 21:30N 30°11' W 093°18'0 0.0
2017-Oct-13 21:01N 30°11' W 093°18'0 0.0
2017-Oct-13 20:31N 30°11' W 093°18'0 0.0
2017-Oct-13 20:00N 30°11' W 093°18'0 0.0
2017-Oct-13 19:30N 30°11' W 093°18'0 0.0
2017-Oct-13 19:01N 30°11' W 093°18'0 0.0
2017-Oct-13 18:30N 30°11' W 093°18'0 0.0
2017-Oct-13 18:01N 30°11' W 093°18'0 0.0
2017-Oct-13 17:31N 30°11' W 093°18'0 0.0
2017-Oct-13 17:01N 30°11' W 093°18'0 0.0
2017-Oct-13 16:31N 30°11' W 093°18'0 0.1
2017-Oct-13 16:01N 30°11' W 093°18'0 0.3
2017-Oct-13 15:30N 30°11' W 093°18'0 0.0
2017-Oct-13 15:01N 30°11' W 093°18'0 0.0
2017-Oct-13 14:31N 30°11' W 093°18'0 0.0
2017-Oct-13 14:01N 30°11' W 093°18'0 0.0
2017-Oct-13 13:31N 30°11' W 093°18'0 0.0
2017-Oct-13 13:01N 30°11' W 093°18'0 0.0
2017-Oct-13 12:31N 30°11' W 093°18'0 0.3
2017-Oct-13 12:01N 30°11' W 093°18'0 0.0
2017-Oct-13 11:31N 30°11' W 093°18'0 0.0
2017-Oct-13 11:01N 30°11' W 093°18'0 0.0
2017-Oct-13 10:31N 30°11' W 093°18'0 0.0
2017-Oct-13 10:01N 30°11' W 093°18'0 0.0
2017-Oct-13 09:31N 30°11' W 093°18'0 0.0
2017-Oct-13 09:01N 30°11' W 093°18'0 0.0
2017-Oct-13 08:30N 30°11' W 093°18'0 0.0
2017-Oct-13 08:01N 30°11' W 093°18'0 0.0
2017-Oct-13 07:31N 30°11' W 093°18'0 0.0
2017-Oct-13 07:00N 30°11' W 093°18'0 0.0
2017-Oct-13 06:31N 30°11' W 093°18'0 0.0
2017-Oct-13 06:01N 30°11' W 093°18'0 0.0
2017-Oct-13 05:30N 30°11' W 093°18'0 0.0
2017-Oct-13 05:01N 30°11' W 093°18'0 0.0
2017-Oct-13 04:30N 30°11' W 093°18'0 0.0
2017-Oct-13 04:01N 30°11' W 093°18'0 0.0
2017-Oct-13 03:31N 30°11' W 093°18'0 0.0
2017-Oct-13 03:00N 30°11' W 093°18'0 0.0
2017-Oct-13 02:31N 30°11' W 093°18'0 0.0
2017-Oct-13 02:01N 30°11' W 093°18'0 0.0
2017-Oct-13 01:31N 30°11' W 093°18'0 0.0
2017-Oct-13 01:01N 30°11' W 093°18'0 0.0
2017-Oct-13 00:31N 30°11' W 093°18'0 0.0
2017-Oct-13 00:01N 30°11' W 093°18'0 0.0
2017-Oct-12 23:31N 30°11' W 093°18'0 0.0
2017-Oct-12 23:01N 30°11' W 093°18'0 0.0
2017-Oct-12 22:31N 30°11' W 093°18'0 0.0
2017-Oct-12 22:01N 30°11' W 093°18'0 0.0
2017-Oct-12 21:31N 30°11' W 093°18'0 0.0
2017-Oct-12 21:01N 30°11' W 093°18'0 0.0
2017-Oct-12 20:31N 30°11' W 093°18'0 0.0
2017-Oct-12 20:01N 30°11' W 093°18'0 0.0
2017-Oct-12 19:30N 30°11' W 093°18'0 0.0
2017-Oct-12 19:01N 30°11' W 093°18'0 0.0
2017-Oct-12 18:31N 30°11' W 093°18'1 2.6
2017-Oct-12 18:01N 30°10' W 093°19'2 3.2
2017-Oct-12 17:31N 30°09' W 093°20'2 4.6
2017-Oct-12 17:01N 30°07' W 093°20'2 3.4
2017-Oct-12 16:31N 30°05' W 093°20'1 3.0
2017-Oct-12 16:00N 30°06' W 093°20'3 5.8
2017-Oct-12 15:31N 30°09' W 093°20'3 5.1
2017-Oct-12 15:01N 30°11' W 093°18'0 0.1
2017-Oct-12 14:31N 30°11' W 093°18'0 0.0
2017-Oct-12 14:01N 30°11' W 093°18'0 0.0
2017-Oct-12 13:31N 30°11' W 093°18'0 0.0
2017-Oct-12 13:01N 30°11' W 093°18'0 0.0
2017-Oct-12 12:30N 30°11' W 093°18'0 0.2
2017-Oct-12 12:01N 30°11' W 093°18'0 0.0
2017-Oct-12 11:31N 30°11' W 093°18'0 0.0
2017-Oct-12 11:01N 30°11' W 093°18'0 0.0
2017-Oct-12 10:31N 30°11' W 093°18'0 0.0
2017-Oct-12 10:01N 30°11' W 093°18'0 0.0
2017-Oct-12 09:30N 30°11' W 093°18'0 0.0
2017-Oct-12 09:00N 30°11' W 093°18'0 0.0
2017-Oct-12 08:31N 30°11' W 093°18'0 0.0
2017-Oct-12 08:01N 30°11' W 093°18'0 0.0
2017-Oct-12 07:31N 30°11' W 093°18'0 0.0
2017-Oct-12 07:01N 30°11' W 093°18'0 0.0
2017-Oct-12 06:31N 30°11' W 093°18'0 0.0
2017-Oct-12 06:01N 30°11' W 093°18'0 0.0
2017-Oct-12 05:31N 30°11' W 093°18'0 0.0
2017-Oct-12 05:00N 30°11' W 093°18'0 0.0
2017-Oct-12 04:31N 30°11' W 093°18'0 0.0
2017-Oct-12 04:01N 30°11' W 093°18'0 0.0
2017-Oct-12 03:31N 30°11' W 093°18'0 0.0
2017-Oct-12 03:00N 30°11' W 093°18'0 0.0
2017-Oct-12 02:30N 30°11' W 093°18'0 0.0
2017-Oct-12 02:01N 30°11' W 093°18'0 0.0
2017-Oct-12 01:31N 30°11' W 093°18'0 0.0
2017-Oct-12 01:01N 30°11' W 093°18'0 0.0
2017-Oct-12 00:31N 30°11' W 093°18'0 0.0
2017-Oct-12 00:00N 30°11' W 093°18'0 0.0
2017-Oct-11 23:31N 30°11' W 093°18'0 0.0
2017-Oct-11 23:01N 30°11' W 093°18'0 0.0
2017-Oct-11 22:31N 30°11' W 093°18'1 1.1
2017-Oct-11 22:01N 30°11' W 093°18'3 5.0
2017-Oct-11 21:30N 30°09' W 093°20'3 5.7
2017-Oct-11 21:01N 30°06' W 093°20'1 2.1
2017-Oct-11 20:31N 30°05' W 093°20'2 3.8
2017-Oct-11 20:01N 30°07' W 093°20'3 5.2
2017-Oct-11 19:31N 30°09' W 093°20'2 4.8
2017-Oct-11 19:01N 30°11' W 093°18'1 2.7
2017-Oct-11 18:31N 30°12' W 093°17'1 2.8
2017-Oct-11 18:01N 30°13' W 093°16'1 2.1
2017-Oct-11 17:30N 30°14' W 093°15'1 1.5
2017-Oct-11 16:58N 30°15' W 093°15'0 0.0
2017-Oct-10 23:51N 30°15' W 093°15'0 0.0
2017-Oct-10 23:30N 30°15' W 093°15'0 0.0
2017-Oct-10 23:00N 30°15' W 093°15'0 0.0
2017-Oct-10 22:30N 30°15' W 093°15'0 0.0
2017-Oct-10 22:00N 30°15' W 093°15'0 0.0
2017-Oct-10 21:30N 30°15' W 093°15'0 0.0
2017-Oct-10 21:01N 30°15' W 093°15'0 0.0
2017-Oct-10 20:30N 30°15' W 093°15'0 0.0
2017-Oct-10 20:00N 30°15' W 093°15'0 0.0
2017-Oct-10 19:31N 30°15' W 093°15'0 0.0
2017-Oct-10 19:00N 30°15' W 093°15'0 0.0
2017-Oct-10 18:30N 30°15' W 093°15'0 0.0
2017-Oct-10 17:59N 30°15' W 093°15'0 0.0
2017-Oct-10 17:28N 30°15' W 093°15'0 0.0
2017-Oct-10 17:01N 30°15' W 093°15'0 0.0
2017-Oct-10 16:31N 30°15' W 093°15'0 0.0
2017-Oct-10 15:55N 30°15' W 093°15'0 0.0
2017-Oct-10 15:30N 30°15' W 093°15'0 0.0
2017-Oct-10 15:01N 30°15' W 093°15'0 0.0
2017-Oct-10 13:58N 30°15' W 093°15'0 0.0
2017-Oct-10 13:29N 30°15' W 093°15'0 0.0
2017-Oct-10 12:59N 30°15' W 093°15'0 0.0
2017-Oct-10 12:30N 30°15' W 093°15'0 0.0
2017-Oct-10 12:00N 30°15' W 093°15'0 0.0
2017-Oct-10 11:30N 30°15' W 093°15'0 0.0
2017-Oct-10 11:00N 30°15' W 093°15'0 0.0
2017-Oct-10 10:29N 30°15' W 093°15'0 0.0
2017-Oct-10 10:01N 30°15' W 093°15'0 0.0
2017-Oct-10 09:30N 30°15' W 093°15'0 0.0
2017-Oct-10 09:00N 30°15' W 093°15'0 0.0
2017-Oct-10 08:29N 30°15' W 093°15'0 0.0
2017-Oct-10 07:58N 30°15' W 093°15'0 0.0
2017-Oct-10 07:26N 30°15' W 093°15'0 0.0
2017-Oct-10 06:58N 30°15' W 093°15'0 0.0
2017-Oct-10 06:30N 30°15' W 093°15'0 0.0
2017-Oct-10 05:59N 30°15' W 093°15'0 0.0
2017-Oct-10 05:29N 30°15' W 093°15'0 0.0
2017-Oct-10 04:54N 30°15' W 093°15'0 0.0
2017-Oct-10 04:27N 30°15' W 093°15'0 0.0
2017-Oct-10 04:00N 30°15' W 093°15'0 0.0
2017-Oct-10 03:30N 30°15' W 093°15'0 0.0
2017-Oct-10 03:00N 30°15' W 093°15'0 0.0
2017-Oct-10 02:30N 30°15' W 093°15'0 0.0
2017-Oct-10 01:59N 30°15' W 093°15'0 0.0
2017-Oct-10 01:31N 30°15' W 093°15'0 0.0
2017-Oct-10 01:00N 30°15' W 093°15'0 0.0
2017-Oct-10 00:30N 30°15' W 093°15'0 0.0
2017-Oct-10 00:00N 30°15' W 093°15'0 0.0
2017-Oct-09 23:31N 30°15' W 093°15'0 0.0
2017-Oct-09 23:00N 30°15' W 093°15'0 0.0
2017-Oct-09 22:30N 30°15' W 093°15'0 0.0
2017-Oct-09 22:00N 30°15' W 093°15'0 0.0
2017-Oct-09 21:31N 30°15' W 093°15'0 0.0
2017-Oct-09 21:00N 30°15' W 093°15'0 0.0
2017-Oct-09 20:30N 30°15' W 093°15'0 0.0
2017-Oct-09 20:00N 30°15' W 093°15'0 0.0
2017-Oct-09 19:30N 30°15' W 093°15'0 0.0
2017-Oct-09 19:00N 30°15' W 093°15'0 0.0
2017-Oct-09 18:30N 30°15' W 093°15'0 0.0
2017-Oct-09 18:01N 30°15' W 093°15'0 0.0
2017-Oct-09 17:30N 30°15' W 093°15'0 0.0
2017-Oct-09 17:00N 30°15' W 093°15'0 0.0
2017-Oct-09 16:31N 30°15' W 093°15'0 0.0
2017-Oct-09 16:00N 30°15' W 093°15'0 0.0
2017-Oct-09 15:31N 30°15' W 093°15'0 0.0
2017-Oct-09 15:00N 30°15' W 093°15'0 0.0
2017-Oct-09 14:30N 30°15' W 093°15'0 0.0
2017-Oct-09 14:01N 30°15' W 093°15'0 0.0
2017-Oct-09 13:30N 30°15' W 093°15'0 0.0
2017-Oct-09 13:00N 30°15' W 093°15'0 0.0
2017-Oct-09 12:30N 30°15' W 093°15'0 0.0
2017-Oct-09 12:01N 30°15' W 093°15'0 0.0
2017-Oct-09 11:30N 30°15' W 093°15'0 0.0
2017-Oct-09 10:59N 30°15' W 093°15'0 0.0
2017-Oct-09 10:30N 30°15' W 093°15'0 0.0
2017-Oct-09 09:17N 30°15' W 093°15'0 0.0
2017-Oct-09 08:59N 30°15' W 093°15'0 0.0
2017-Oct-09 07:02N 30°15' W 093°15'0 0.0
2017-Oct-09 06:50N 30°15' W 093°15'0 0.0
2017-Oct-09 06:21N 30°15' W 093°15'0 0.0
2017-Oct-09 06:00N 30°15' W 093°15'0 0.0
2017-Oct-09 05:28N 30°15' W 093°15'0 0.0
2017-Oct-09 04:58N 30°15' W 093°15'0 0.0
2017-Oct-09 04:30N 30°15' W 093°15'0 0.0
2017-Oct-09 04:00N 30°15' W 093°15'0 0.0
2017-Oct-09 03:30N 30°15' W 093°15'0 0.0
2017-Oct-09 03:01N 30°15' W 093°15'0 0.0
2017-Oct-09 02:30N 30°15' W 093°15'0 0.0
2017-Oct-09 02:00N 30°15' W 093°15'0 0.0
2017-Oct-09 01:30N 30°15' W 093°15'0 0.0
2017-Oct-09 01:00N 30°15' W 093°15'0 0.0
2017-Oct-09 00:26N 30°15' W 093°15'0 0.0
2017-Oct-09 00:00N 30°15' W 093°15'0 0.0
2017-Oct-08 23:30N 30°15' W 093°15'0 0.0
2017-Oct-08 23:00N 30°15' W 093°15'0 0.0
2017-Oct-08 22:31N 30°15' W 093°15'0 0.0
2017-Oct-08 22:01N 30°15' W 093°15'0 0.0
2017-Oct-08 21:30N 30°15' W 093°15'0 0.0
2017-Oct-08 21:01N 30°15' W 093°15'0 0.0
2017-Oct-08 20:29N 30°15' W 093°15'0 0.0
2017-Oct-08 20:00N 30°15' W 093°15'0 0.0
2017-Oct-08 19:30N 30°15' W 093°15'0 0.0
2017-Oct-08 19:00N 30°15' W 093°15'0 0.0
2017-Oct-08 18:30N 30°15' W 093°15'0 0.0
2017-Oct-08 18:00N 30°15' W 093°15'0 0.0
2017-Oct-08 17:29N 30°15' W 093°15'0 0.0
2017-Oct-08 17:00N 30°15' W 093°15'0 0.0
2017-Oct-08 16:31N 30°15' W 093°15'0 0.0
2017-Oct-08 16:01N 30°15' W 093°15'0 0.0
2017-Oct-08 15:30N 30°15' W 093°15'0 0.0
2017-Oct-08 15:01N 30°15' W 093°15'0 0.0
2017-Oct-08 14:30N 30°15' W 093°15'0 0.0
2017-Oct-08 14:00N 30°15' W 093°15'0 0.0
2017-Oct-08 13:31N 30°15' W 093°15'0 0.0
2017-Oct-08 13:00N 30°15' W 093°15'0 0.0
2017-Oct-08 12:30N 30°15' W 093°15'0 0.0
2017-Oct-08 12:00N 30°15' W 093°15'0 0.0
2017-Oct-08 11:30N 30°15' W 093°15'0 0.0
2017-Oct-08 11:01N 30°15' W 093°15'0 0.0
2017-Oct-08 10:30N 30°15' W 093°15'0 0.0
2017-Oct-08 10:01N 30°15' W 093°15'0 0.0
2017-Oct-08 09:30N 30°15' W 093°15'0 0.0
2017-Oct-08 09:00N 30°15' W 093°15'0 0.0
2017-Oct-08 08:30N 30°15' W 093°15'0 0.0
2017-Oct-08 08:00N 30°15' W 093°15'0 0.0
2017-Oct-08 07:31N 30°15' W 093°15'0 0.0
2017-Oct-08 07:00N 30°15' W 093°15'0 0.0
2017-Oct-08 06:30N 30°15' W 093°15'0 0.0
2017-Oct-08 06:00N 30°15' W 093°15'0 0.0
2017-Oct-08 05:30N 30°15' W 093°15'0 0.0
2017-Oct-08 05:00N 30°15' W 093°15'0 0.0
2017-Oct-08 04:31N 30°15' W 093°15'0 0.0
2017-Oct-08 04:01N 30°15' W 093°15'0 0.0
2017-Oct-08 03:30N 30°15' W 093°15'0 0.0
2017-Oct-08 03:00N 30°15' W 093°15'0 0.0
2017-Oct-08 02:30N 30°15' W 093°15'0 0.0
2017-Oct-08 02:00N 30°15' W 093°15'0 0.0
2017-Oct-08 01:30N 30°15' W 093°15'0 0.0
2017-Oct-08 01:00N 30°15' W 093°15'0 0.0
2017-Oct-08 00:30N 30°15' W 093°15'0 0.0
2017-Oct-08 00:00N 30°15' W 093°15'0 0.0
2017-Oct-07 23:30N 30°15' W 093°15'0 0.0
2017-Oct-07 23:00N 30°15' W 093°15'0 0.0
2017-Oct-07 22:30N 30°15' W 093°15'0 0.0
2017-Oct-07 22:01N 30°15' W 093°15'1 1.3
2017-Oct-07 21:30N 30°14' W 093°15'1 0.8
2017-Oct-07 20:47N 30°15' W 093°15'0 0.0
2017-Oct-07 19:52N 30°15' W 093°15'0 0.0
2017-Oct-07 19:26N 30°15' W 093°15'  
Track history (hours):
 
Tides and Currents Weather Stations Pressure Air Temp Water Temp Dewpoint Dewpoint Depression Visibility Wind Speed Wind Dir Waves Ship Positions

Morgan Ray

Owner: Daigle Towing Service LLC., Belle Chasse, LA. More information available from US FCC via Universal Licensing System and Coast Guard Vessel Documentation Center.

Last reported at 2017-Oct-17 19:01 UTC. Time now 2017-Oct-17 19:10 UTC.
Position N 30°06' W 093°20'.

Length 20 m; draft 2 m.

Type: Tug. MMSI: 367470470.

Date/timePositionNaut miles runAvg speedWind from/ knotsBaromVisibWave heightAir tempDewpointWater temp
2017-Oct-17 19:01N 30°06' W 093°20'3 5.5
2017-Oct-17 18:31N 30°09' W 093°20'2 4.9
2017-Oct-17 18:00N 30°11' W 093°19'3 5.2
2017-Oct-17 17:31N 30°12' W 093°16'2 3.2
2017-Oct-17 17:01N 30°13' W 093°15'1 2.3
2017-Oct-17 16:31N 30°14' W 093°15'0 0.0
2017-Oct-15 22:40N 30°14' W 093°15'0 2.4
2017-Oct-15 22:29N 30°14' W 093°15'1 1.8
2017-Oct-15 22:01N 30°13' W 093°15'1 1.6
2017-Oct-15 21:30N 30°13' W 093°16'2 3.2
2017-Oct-15 21:01N 30°12' W 093°17'1 1.7
2017-Oct-15 20:31N 30°11' W 093°18'0 0.0
2017-Oct-15 20:01N 30°11' W 093°18'0 0.0
2017-Oct-15 19:31N 30°11' W 093°18'0 0.0
2017-Oct-15 19:01N 30°11' W 093°18'0 0.0
2017-Oct-15 18:31N 30°11' W 093°18'0 0.0
2017-Oct-15 18:01N 30°11' W 093°18'0 0.0
2017-Oct-15 17:31N 30°11' W 093°18'0 0.0
2017-Oct-15 17:01N 30°11' W 093°18'0 0.1
2017-Oct-15 16:30N 30°11' W 093°18'1 1.4
2017-Oct-15 16:00N 30°12' W 093°17'0 0.0
2017-Oct-15 15:30N 30°12' W 093°17'0 0.0
2017-Oct-15 15:00N 30°12' W 093°17'0 0.0
2017-Oct-15 13:29N 30°12' W 093°17'0 0.0
2017-Oct-15 13:01N 30°12' W 093°17'1 2.1
2017-Oct-15 12:31N 30°12' W 093°16'1 2.4
2017-Oct-15 11:59N 30°13' W 093°15'0 0.0
2017-Oct-15 06:57N 30°13' W 093°15'0 0.0
2017-Oct-15 06:25N 30°13' W 093°15'0 0.0
2017-Oct-15 06:01N 30°13' W 093°15'0 0.0
2017-Oct-15 02:11N 30°13' W 093°15'0 0.6
2017-Oct-15 01:55N 30°13' W 093°15'1 1.8
2017-Oct-15 01:31N 30°13' W 093°16'2 4.3
2017-Oct-15 01:01N 30°12' W 093°18'0 0.9
2017-Oct-15 00:31N 30°12' W 093°17'3 6.2
2017-Oct-15 00:01N 30°14' W 093°15'1 1.3
2017-Oct-14 23:30N 30°14' W 093°15'1 1.4
2017-Oct-14 23:00N 30°14' W 093°15'1 2.4
2017-Oct-14 22:30N 30°13' W 093°16'2 4.5
2017-Oct-14 22:01N 30°12' W 093°18'0 0.5
2017-Oct-14 21:31N 30°11' W 093°18'0 0.0
2017-Oct-14 21:00N 30°11' W 093°18'0 0.0
2017-Oct-14 20:30N 30°11' W 093°18'0 0.0
2017-Oct-14 20:01N 30°11' W 093°18'0 0.0
2017-Oct-14 19:30N 30°11' W 093°18'0 0.0
2017-Oct-14 19:01N 30°11' W 093°18'0 0.0
2017-Oct-14 18:31N 30°11' W 093°18'0 0.0
2017-Oct-14 18:01N 30°11' W 093°18'0 0.1
2017-Oct-14 17:31N 30°11' W 093°18'0 0.4
2017-Oct-14 17:01N 30°12' W 093°18'0 0.0
2017-Oct-14 16:16N 30°12' W 093°18'0 0.6
2017-Oct-14 16:01N 30°11' W 093°18'0 0.2
2017-Oct-14 15:31N 30°11' W 093°18'0 0.0
2017-Oct-14 15:00N 30°11' W 093°18'0 0.0
2017-Oct-14 14:31N 30°11' W 093°18'0 0.0
2017-Oct-14 14:01N 30°11' W 093°18'0 0.0
2017-Oct-14 13:31N 30°11' W 093°18'0 0.2
2017-Oct-14 13:01N 30°11' W 093°18'0 0.1
2017-Oct-14 12:30N 30°11' W 093°18'0 0.0
2017-Oct-14 12:01N 30°11' W 093°18'0 0.0
2017-Oct-14 11:30N 30°11' W 093°18'0 0.0
2017-Oct-14 11:01N 30°11' W 093°18'0 0.0
2017-Oct-14 10:31N 30°11' W 093°18'0 0.0
2017-Oct-14 10:01N 30°11' W 093°18'0 0.0
2017-Oct-14 09:30N 30°11' W 093°18'0 0.0
2017-Oct-14 09:01N 30°11' W 093°18'0 0.0
2017-Oct-14 08:31N 30°11' W 093°18'0 0.0
2017-Oct-14 08:01N 30°11' W 093°18'0 0.0
2017-Oct-14 07:31N 30°11' W 093°18'0 0.0
2017-Oct-14 07:01N 30°11' W 093°18'0 0.0
2017-Oct-14 06:31N 30°11' W 093°18'0 0.0
2017-Oct-14 06:01N 30°11' W 093°18'0 0.0
2017-Oct-14 05:31N 30°11' W 093°18'0 0.0
2017-Oct-14 05:01N 30°11' W 093°18'0 0.0
2017-Oct-14 04:31N 30°11' W 093°18'0 0.0
2017-Oct-14 04:01N 30°11' W 093°18'0 0.0
2017-Oct-14 03:31N 30°11' W 093°18'0 0.0
2017-Oct-14 03:01N 30°11' W 093°18'0 0.0
2017-Oct-14 02:31N 30°11' W 093°18'0 0.0
2017-Oct-14 02:00N 30°11' W 093°18'0 0.0
2017-Oct-14 01:31N 30°11' W 093°18'0 0.0
2017-Oct-14 01:01N 30°11' W 093°18'0 0.0
2017-Oct-14 00:31N 30°11' W 093°18'0 0.0
2017-Oct-14 00:01N 30°11' W 093°18'0 0.0
2017-Oct-13 23:30N 30°11' W 093°18'0 0.0
2017-Oct-13 23:01N 30°11' W 093°18'0 0.0
2017-Oct-13 22:30N 30°11' W 093°18'0 0.0
2017-Oct-13 22:01N 30°11' W 093°18'0 0.0
2017-Oct-13 21:30N 30°11' W 093°18'0 0.0
2017-Oct-13 21:01N 30°11' W 093°18'0 0.0
2017-Oct-13 20:31N 30°11' W 093°18'0 0.0
2017-Oct-13 20:00N 30°11' W 093°18'0 0.0
2017-Oct-13 19:30N 30°11' W 093°18'0 0.0
2017-Oct-13 19:01N 30°11' W 093°18'0 0.0
2017-Oct-13 18:30N 30°11' W 093°18'0 0.0
2017-Oct-13 18:01N 30°11' W 093°18'0 0.0
2017-Oct-13 17:31N 30°11' W 093°18'0 0.0
2017-Oct-13 17:01N 30°11' W 093°18'0 0.0
2017-Oct-13 16:31N 30°11' W 093°18'0 0.1
2017-Oct-13 16:01N 30°11' W 093°18'0 0.3
2017-Oct-13 15:30N 30°11' W 093°18'0 0.0
2017-Oct-13 15:01N 30°11' W 093°18'0 0.0
2017-Oct-13 14:31N 30°11' W 093°18'0 0.0
2017-Oct-13 14:01N 30°11' W 093°18'0 0.0
2017-Oct-13 13:31N 30°11' W 093°18'0 0.0
2017-Oct-13 13:01N 30°11' W 093°18'0 0.0
2017-Oct-13 12:31N 30°11' W 093°18'0 0.3
2017-Oct-13 12:01N 30°11' W 093°18'0 0.0
2017-Oct-13 11:31N 30°11' W 093°18'0 0.0
2017-Oct-13 11:01N 30°11' W 093°18'0 0.0
2017-Oct-13 10:31N 30°11' W 093°18'0 0.0
2017-Oct-13 10:01N 30°11' W 093°18'0 0.0
2017-Oct-13 09:31N 30°11' W 093°18'0 0.0
2017-Oct-13 09:01N 30°11' W 093°18'0 0.0
2017-Oct-13 08:30N 30°11' W 093°18'0 0.0
2017-Oct-13 08:01N 30°11' W 093°18'0 0.0
2017-Oct-13 07:31N 30°11' W 093°18'0 0.0
2017-Oct-13 07:00N 30°11' W 093°18'0 0.0
2017-Oct-13 06:31N 30°11' W 093°18'0 0.0
2017-Oct-13 06:01N 30°11' W 093°18'0 0.0
2017-Oct-13 05:30N 30°11' W 093°18'0 0.0
2017-Oct-13 05:01N 30°11' W 093°18'0 0.0
2017-Oct-13 04:30N 30°11' W 093°18'0 0.0
2017-Oct-13 04:01N 30°11' W 093°18'0 0.0
2017-Oct-13 03:31N 30°11' W 093°18'0 0.0
2017-Oct-13 03:00N 30°11' W 093°18'0 0.0
2017-Oct-13 02:31N 30°11' W 093°18'0 0.0
2017-Oct-13 02:01N 30°11' W 093°18'0 0.0
2017-Oct-13 01:31N 30°11' W 093°18'0 0.0
2017-Oct-13 01:01N 30°11' W 093°18'0 0.0
2017-Oct-13 00:31N 30°11' W 093°18'0 0.0
2017-Oct-13 00:01N 30°11' W 093°18'0 0.0
2017-Oct-12 23:31N 30°11' W 093°18'0 0.0
2017-Oct-12 23:01N 30°11' W 093°18'0 0.0
2017-Oct-12 22:31N 30°11' W 093°18'0 0.0
2017-Oct-12 22:01N 30°11' W 093°18'0 0.0
2017-Oct-12 21:31N 30°11' W 093°18'0 0.0
2017-Oct-12 21:01N 30°11' W 093°18'0 0.0
2017-Oct-12 20:31N 30°11' W 093°18'0 0.0
2017-Oct-12 20:01N 30°11' W 093°18'0 0.0
2017-Oct-12 19:30N 30°11' W 093°18'0 0.0
2017-Oct-12 19:01N 30°11' W 093°18'0 0.0
2017-Oct-12 18:31N 30°11' W 093°18'1 2.6
2017-Oct-12 18:01N 30°10' W 093°19'2 3.2
2017-Oct-12 17:31N 30°09' W 093°20'2 4.6
2017-Oct-12 17:01N 30°07' W 093°20'2 3.4
2017-Oct-12 16:31N 30°05' W 093°20'1 3.0
2017-Oct-12 16:00N 30°06' W 093°20'3 5.8
2017-Oct-12 15:31N 30°09' W 093°20'3 5.1
2017-Oct-12 15:01N 30°11' W 093°18'0 0.1
2017-Oct-12 14:31N 30°11' W 093°18'0 0.0
2017-Oct-12 14:01N 30°11' W 093°18'0 0.0
2017-Oct-12 13:31N 30°11' W 093°18'0 0.0
2017-Oct-12 13:01N 30°11' W 093°18'0 0.0
2017-Oct-12 12:30N 30°11' W 093°18'0 0.2
2017-Oct-12 12:01N 30°11' W 093°18'0 0.0
2017-Oct-12 11:31N 30°11' W 093°18'0 0.0
2017-Oct-12 11:01N 30°11' W 093°18'0 0.0
2017-Oct-12 10:31N 30°11' W 093°18'0 0.0
2017-Oct-12 10:01N 30°11' W 093°18'0 0.0
2017-Oct-12 09:30N 30°11' W 093°18'0 0.0
2017-Oct-12 09:00N 30°11' W 093°18'0 0.0
2017-Oct-12 08:31N 30°11' W 093°18'0 0.0
2017-Oct-12 08:01N 30°11' W 093°18'0 0.0
2017-Oct-12 07:31N 30°11' W 093°18'0 0.0
2017-Oct-12 07:01N 30°11' W 093°18'0 0.0
2017-Oct-12 06:31N 30°11' W 093°18'0 0.0
2017-Oct-12 06:01N 30°11' W 093°18'0 0.0
2017-Oct-12 05:31N 30°11' W 093°18'0 0.0
2017-Oct-12 05:00N 30°11' W 093°18'0 0.0
2017-Oct-12 04:31N 30°11' W 093°18'0 0.0
2017-Oct-12 04:01N 30°11' W 093°18'0 0.0
2017-Oct-12 03:31N 30°11' W 093°18'0 0.0
2017-Oct-12 03:00N 30°11' W 093°18'0 0.0
2017-Oct-12 02:30N 30°11' W 093°18'0 0.0
2017-Oct-12 02:01N 30°11' W 093°18'0 0.0
2017-Oct-12 01:31N 30°11' W 093°18'0 0.0
2017-Oct-12 01:01N 30°11' W 093°18'0 0.0
2017-Oct-12 00:31N 30°11' W 093°18'0 0.0
2017-Oct-12 00:00N 30°11' W 093°18'0 0.0
2017-Oct-11 23:31N 30°11' W 093°18'0 0.0
2017-Oct-11 23:01N 30°11' W 093°18'0 0.0
2017-Oct-11 22:31N 30°11' W 093°18'1 1.1
2017-Oct-11 22:01N 30°11' W 093°18'3 5.0
2017-Oct-11 21:30N 30°09' W 093°20'3 5.7
2017-Oct-11 21:01N 30°06' W 093°20'1 2.1
2017-Oct-11 20:31N 30°05' W 093°20'2 3.8
2017-Oct-11 20:01N 30°07' W 093°20'3 5.2
2017-Oct-11 19:31N 30°09' W 093°20'2 4.8
2017-Oct-11 19:01N 30°11' W 093°18'1 2.7
2017-Oct-11 18:31N 30°12' W 093°17'1 2.8
2017-Oct-11 18:01N 30°13' W 093°16'1 2.1
2017-Oct-11 17:30N 30°14' W 093°15'1 1.5
2017-Oct-11 16:58N 30°15' W 093°15'0 0.0
2017-Oct-10 23:51N 30°15' W 093°15'0 0.0
2017-Oct-10 23:30N 30°15' W 093°15'0 0.0
2017-Oct-10 23:00N 30°15' W 093°15'0 0.0
2017-Oct-10 22:30N 30°15' W 093°15'0 0.0
2017-Oct-10 22:00N 30°15' W 093°15'0 0.0
2017-Oct-10 21:30N 30°15' W 093°15'0 0.0
2017-Oct-10 21:01N 30°15' W 093°15'0 0.0
2017-Oct-10 20:30N 30°15' W 093°15'0 0.0
2017-Oct-10 20:00N 30°15' W 093°15'0 0.0
2017-Oct-10 19:31N 30°15' W 093°15'0 0.0
2017-Oct-10 19:00N 30°15' W 093°15'0 0.0
2017-Oct-10 18:30N 30°15' W 093°15'0 0.0
2017-Oct-10 17:59N 30°15' W 093°15'0 0.0
2017-Oct-10 17:28N 30°15' W 093°15'0 0.0
2017-Oct-10 17:01N 30°15' W 093°15'0 0.0
2017-Oct-10 16:31N 30°15' W 093°15'0 0.0
2017-Oct-10 15:55N 30°15' W 093°15'0 0.0
2017-Oct-10 15:30N 30°15' W 093°15'0 0.0
2017-Oct-10 15:01N 30°15' W 093°15'0 0.0
2017-Oct-10 13:58N 30°15' W 093°15'0 0.0
2017-Oct-10 13:29N 30°15' W 093°15'0 0.0
2017-Oct-10 12:59N 30°15' W 093°15'0 0.0
2017-Oct-10 12:30N 30°15' W 093°15'0 0.0
2017-Oct-10 12:00N 30°15' W 093°15'0 0.0
2017-Oct-10 11:30N 30°15' W 093°15'0 0.0
2017-Oct-10 11:00N 30°15' W 093°15'0 0.0
2017-Oct-10 10:29N 30°15' W 093°15'0 0.0
2017-Oct-10 10:01N 30°15' W 093°15'0 0.0
2017-Oct-10 09:30N 30°15' W 093°15'0 0.0
2017-Oct-10 09:00N 30°15' W 093°15'0 0.0
2017-Oct-10 08:29N 30°15' W 093°15'0 0.0
2017-Oct-10 07:58N 30°15' W 093°15'0 0.0
2017-Oct-10 07:26N 30°15' W 093°15'0 0.0
2017-Oct-10 06:58N 30°15' W 093°15'0 0.0
2017-Oct-10 06:30N 30°15' W 093°15'0 0.0
2017-Oct-10 05:59N 30°15' W 093°15'0 0.0
2017-Oct-10 05:29N 30°15' W 093°15'0 0.0
2017-Oct-10 04:54N 30°15' W 093°15'0 0.0
2017-Oct-10 04:27N 30°15' W 093°15'0 0.0
2017-Oct-10 04:00N 30°15' W 093°15'0 0.0
2017-Oct-10 03:30N 30°15' W 093°15'0 0.0
2017-Oct-10 03:00N 30°15' W 093°15'0 0.0
2017-Oct-10 02:30N 30°15' W 093°15'0 0.0
2017-Oct-10 01:59N 30°15' W 093°15'0 0.0
2017-Oct-10 01:31N 30°15' W 093°15'0 0.0
2017-Oct-10 01:00N 30°15' W 093°15'0 0.0
2017-Oct-10 00:30N 30°15' W 093°15'0 0.0
2017-Oct-10 00:00N 30°15' W 093°15'0 0.0
2017-Oct-09 23:31N 30°15' W 093°15'0 0.0
2017-Oct-09 23:00N 30°15' W 093°15'0 0.0
2017-Oct-09 22:30N 30°15' W 093°15'0 0.0
2017-Oct-09 22:00N 30°15' W 093°15'0 0.0
2017-Oct-09 21:31N 30°15' W 093°15'0 0.0
2017-Oct-09 21:00N 30°15' W 093°15'0 0.0
2017-Oct-09 20:30N 30°15' W 093°15'0 0.0
2017-Oct-09 20:00N 30°15' W 093°15'0 0.0
2017-Oct-09 19:30N 30°15' W 093°15'0 0.0
2017-Oct-09 19:00N 30°15' W 093°15'0 0.0
2017-Oct-09 18:30N 30°15' W 093°15'0 0.0
2017-Oct-09 18:01N 30°15' W 093°15'0 0.0
2017-Oct-09 17:30N 30°15' W 093°15'0 0.0
2017-Oct-09 17:00N 30°15' W 093°15'0 0.0
2017-Oct-09 16:31N 30°15' W 093°15'0 0.0
2017-Oct-09 16:00N 30°15' W 093°15'0 0.0
2017-Oct-09 15:31N 30°15' W 093°15'0 0.0
2017-Oct-09 15:00N 30°15' W 093°15'0 0.0
2017-Oct-09 14:30N 30°15' W 093°15'0 0.0
2017-Oct-09 14:01N 30°15' W 093°15'0 0.0
2017-Oct-09 13:30N 30°15' W 093°15'0 0.0
2017-Oct-09 13:00N 30°15' W 093°15'0 0.0
2017-Oct-09 12:30N 30°15' W 093°15'0 0.0
2017-Oct-09 12:01N 30°15' W 093°15'0 0.0
2017-Oct-09 11:30N 30°15' W 093°15'0 0.0
2017-Oct-09 10:59N 30°15' W 093°15'0 0.0
2017-Oct-09 10:30N 30°15' W 093°15'0 0.0
2017-Oct-09 09:17N 30°15' W 093°15'0 0.0
2017-Oct-09 08:59N 30°15' W 093°15'0 0.0
2017-Oct-09 07:02N 30°15' W 093°15'0 0.0
2017-Oct-09 06:50N 30°15' W 093°15'0 0.0
2017-Oct-09 06:21N 30°15' W 093°15'0 0.0
2017-Oct-09 06:00N 30°15' W 093°15'0 0.0
2017-Oct-09 05:28N 30°15' W 093°15'0 0.0
2017-Oct-09 04:58N 30°15' W 093°15'0 0.0
2017-Oct-09 04:30N 30°15' W 093°15'0 0.0
2017-Oct-09 04:00N 30°15' W 093°15'0 0.0
2017-Oct-09 03:30N 30°15' W 093°15'0 0.0
2017-Oct-09 03:01N 30°15' W 093°15'0 0.0
2017-Oct-09 02:30N 30°15' W 093°15'0 0.0
2017-Oct-09 02:00N 30°15' W 093°15'0 0.0
2017-Oct-09 01:30N 30°15' W 093°15'0 0.0
2017-Oct-09 01:00N 30°15' W 093°15'0 0.0
2017-Oct-09 00:26N 30°15' W 093°15'0 0.0
2017-Oct-09 00:00N 30°15' W 093°15'0 0.0
2017-Oct-08 23:30N 30°15' W 093°15'0 0.0
2017-Oct-08 23:00N 30°15' W 093°15'0 0.0
2017-Oct-08 22:31N 30°15' W 093°15'0 0.0
2017-Oct-08 22:01N 30°15' W 093°15'0 0.0
2017-Oct-08 21:30N 30°15' W 093°15'0 0.0
2017-Oct-08 21:01N 30°15' W 093°15'0 0.0
2017-Oct-08 20:29N 30°15' W 093°15'0 0.0
2017-Oct-08 20:00N 30°15' W 093°15'0 0.0
2017-Oct-08 19:30N 30°15' W 093°15'0 0.0
2017-Oct-08 19:00N 30°15' W 093°15'0 0.0
2017-Oct-08 18:30N 30°15' W 093°15'0 0.0
2017-Oct-08 18:00N 30°15' W 093°15'0 0.0
2017-Oct-08 17:29N 30°15' W 093°15'0 0.0
2017-Oct-08 17:00N 30°15' W 093°15'0 0.0
2017-Oct-08 16:31N 30°15' W 093°15'0 0.0
2017-Oct-08 16:01N 30°15' W 093°15'0 0.0
2017-Oct-08 15:30N 30°15' W 093°15'0 0.0
2017-Oct-08 15:01N 30°15' W 093°15'0 0.0
2017-Oct-08 14:30N 30°15' W 093°15'0 0.0
2017-Oct-08 14:00N 30°15' W 093°15'0 0.0
2017-Oct-08 13:31N 30°15' W 093°15'0 0.0
2017-Oct-08 13:00N 30°15' W 093°15'0 0.0
2017-Oct-08 12:30N 30°15' W 093°15'0 0.0
2017-Oct-08 12:00N 30°15' W 093°15'0 0.0
2017-Oct-08 11:30N 30°15' W 093°15'0 0.0
2017-Oct-08 11:01N 30°15' W 093°15'0 0.0
2017-Oct-08 10:30N 30°15' W 093°15'0 0.0
2017-Oct-08 10:01N 30°15' W 093°15'0 0.0
2017-Oct-08 09:30N 30°15' W 093°15'0 0.0
2017-Oct-08 09:00N 30°15' W 093°15'0 0.0
2017-Oct-08 08:30N 30°15' W 093°15'0 0.0
2017-Oct-08 08:00N 30°15' W 093°15'0 0.0
2017-Oct-08 07:31N 30°15' W 093°15'0 0.0
2017-Oct-08 07:00N 30°15' W 093°15'0 0.0
2017-Oct-08 06:30N 30°15' W 093°15'0 0.0
2017-Oct-08 06:00N 30°15' W 093°15'0 0.0
2017-Oct-08 05:30N 30°15' W 093°15'0 0.0
2017-Oct-08 05:00N 30°15' W 093°15'0 0.0
2017-Oct-08 04:31N 30°15' W 093°15'0 0.0
2017-Oct-08 04:01N 30°15' W 093°15'0 0.0
2017-Oct-08 03:30N 30°15' W 093°15'0 0.0
2017-Oct-08 03:00N 30°15' W 093°15'0 0.0
2017-Oct-08 02:30N 30°15' W 093°15'0 0.0
2017-Oct-08 02:00N 30°15' W 093°15'0 0.0
2017-Oct-08 01:30N 30°15' W 093°15'0 0.0
2017-Oct-08 01:00N 30°15' W 093°15'0 0.0
2017-Oct-08 00:30N 30°15' W 093°15'0 0.0
2017-Oct-08 00:00N 30°15' W 093°15'0 0.0
2017-Oct-07 23:30N 30°15' W 093°15'0 0.0
2017-Oct-07 23:00N 30°15' W 093°15'0 0.0
2017-Oct-07 22:30N 30°15' W 093°15'0 0.0
2017-Oct-07 22:01N 30°15' W 093°15'1 1.3
2017-Oct-07 21:30N 30°14' W 093°15'1 0.8
2017-Oct-07 20:47N 30°15' W 093°15'0 0.0
2017-Oct-07 19:52N 30°15' W 093°15'0 0.0
2017-Oct-07 19:26N 30°15' W 093°15'  

Dump ship's entire track history